sensor_id;sensor_type;location;lat;lon;timestamp;temperature;humidity
35531;DHT22;21637;53.352;-6.356;2023-07-29T00:00:34;14.90;99.90
35531;DHT22;21637;53.352;-6.356;2023-07-29T00:03:00;14.90;99.90
35531;DHT22;21637;53.352;-6.356;2023-07-29T00:05:25;14.80;99.90
35531;DHT22;21637;53.352;-6.356;2023-07-29T00:07:52;14.80;99.90
35531;DHT22;21637;53.352;-6.356;2023-07-29T00:10:18;14.80;99.90
35531;DHT22;21637;53.352;-6.356;2023-07-29T00:12:43;14.70;99.90
35531;DHT22;21637;53.352;-6.356;2023-07-29T00:15:09;14.70;99.90
35531;DHT22;21637;53.352;-6.356;2023-07-29T00:17:35;14.80;99.90
35531;DHT22;21637;53.352;-6.356;2023-07-29T00:20:01;14.80;99.90
35531;DHT22;21637;53.352;-6.356;2023-07-29T00:22:26;14.80;99.90
35531;DHT22;21637;53.352;-6.356;2023-07-29T00:24:53;14.70;99.90
35531;DHT22;21637;53.352;-6.356;2023-07-29T00:27:20;14.80;99.90
35531;DHT22;21637;53.352;-6.356;2023-07-29T00:29:46;14.80;99.90
35531;DHT22;21637;53.352;-6.356;2023-07-29T00:32:12;14.70;99.90
35531;DHT22;21637;53.352;-6.356;2023-07-29T00:34:38;14.70;99.90
35531;DHT22;21637;53.352;-6.356;2023-07-29T00:37:04;14.70;99.90
35531;DHT22;21637;53.352;-6.356;2023-07-29T00:39:31;14.70;99.90
35531;DHT22;21637;53.352;-6.356;2023-07-29T00:41:57;14.60;99.90
35531;DHT22;21637;53.352;-6.356;2023-07-29T00:44:23;14.60;99.90
35531;DHT22;21637;53.352;-6.356;2023-07-29T00:46:52;14.50;99.90
35531;DHT22;21637;53.352;-6.356;2023-07-29T00:49:18;14.60;99.90
35531;DHT22;21637;53.352;-6.356;2023-07-29T00:51:45;14.50;99.90
35531;DHT22;21637;53.352;-6.356;2023-07-29T00:54:11;14.50;99.90
35531;DHT22;21637;53.352;-6.356;2023-07-29T00:56:37;14.60;99.90
35531;DHT22;21637;53.352;-6.356;2023-07-29T00:59:04;14.60;99.90
35531;DHT22;21637;53.352;-6.356;2023-07-29T01:01:30;14.60;99.90
35531;DHT22;21637;53.352;-6.356;2023-07-29T01:03:57;14.60;99.90
35531;DHT22;21637;53.352;-6.356;2023-07-29T01:06:36;14.60;99.90
35531;DHT22;21637;53.352;-6.356;2023-07-29T01:16:42;14.70;99.90
35531;DHT22;21637;53.352;-6.356;2023-07-29T01:22:04;14.90;99.90
35531;DHT22;21637;53.352;-6.356;2023-07-29T01:24:31;14.80;99.90
35531;DHT22;21637;53.352;-6.356;2023-07-29T01:26:57;14.80;99.90
35531;DHT22;21637;53.352;-6.356;2023-07-29T01:29:22;14.90;99.90
35531;DHT22;21637;53.352;-6.356;2023-07-29T01:31:53;14.80;99.90
35531;DHT22;21637;53.352;-6.356;2023-07-29T01:37:19;14.80;99.90
35531;DHT22;21637;53.352;-6.356;2023-07-29T01:39:49;14.80;99.90
35531;DHT22;21637;53.352;-6.356;2023-07-29T01:42:16;14.80;99.90
35531;DHT22;21637;53.352;-6.356;2023-07-29T01:44:42;14.60;99.90
35531;DHT22;21637;53.352;-6.356;2023-07-29T01:47:08;14.50;99.90
35531;DHT22;21637;53.352;-6.356;2023-07-29T01:49:34;14.60;99.90
35531;DHT22;21637;53.352;-6.356;2023-07-29T01:51:59;14.50;99.90
35531;DHT22;21637;53.352;-6.356;2023-07-29T01:54:25;14.50;99.90
35531;DHT22;21637;53.352;-6.356;2023-07-29T01:56:51;14.50;99.90
35531;DHT22;21637;53.352;-6.356;2023-07-29T01:59:17;14.40;99.90
35531;DHT22;21637;53.352;-6.356;2023-07-29T02:01:43;14.40;99.90
35531;DHT22;21637;53.352;-6.356;2023-07-29T02:04:08;14.40;99.90
35531;DHT22;21637;53.352;-6.356;2023-07-29T02:06:34;14.30;99.90
35531;DHT22;21637;53.352;-6.356;2023-07-29T02:09:00;14.40;99.90
35531;DHT22;21637;53.352;-6.356;2023-07-29T02:11:25;14.40;99.90
35531;DHT22;21637;53.352;-6.356;2023-07-29T02:13:54;14.30;99.90
35531;DHT22;21637;53.352;-6.356;2023-07-29T02:16:21;14.20;99.90
35531;DHT22;21637;53.352;-6.356;2023-07-29T02:18:48;14.10;99.90
35531;DHT22;21637;53.352;-6.356;2023-07-29T02:21:15;14.10;99.90
35531;DHT22;21637;53.352;-6.356;2023-07-29T02:23:41;14.10;99.90
35531;DHT22;21637;53.352;-6.356;2023-07-29T02:26:06;14.10;99.90
35531;DHT22;21637;53.352;-6.356;2023-07-29T02:28:32;14.20;99.90
35531;DHT22;21637;53.352;-6.356;2023-07-29T02:31:23;14.20;99.90
35531;DHT22;21637;53.352;-6.356;2023-07-29T02:33:49;14.20;99.90
35531;DHT22;21637;53.352;-6.356;2023-07-29T02:36:15;14.20;99.90
35531;DHT22;21637;53.352;-6.356;2023-07-29T02:38:42;14.10;99.90
35531;DHT22;21637;53.352;-6.356;2023-07-29T02:41:11;14.10;99.90
35531;DHT22;21637;53.352;-6.356;2023-07-29T02:43:38;14.10;99.90
35531;DHT22;21637;53.352;-6.356;2023-07-29T02:46:04;14.10;99.90
35531;DHT22;21637;53.352;-6.356;2023-07-29T02:48:30;14.00;99.90
35531;DHT22;21637;53.352;-6.356;2023-07-29T02:50:56;14.10;99.90
35531;DHT22;21637;53.352;-6.356;2023-07-29T02:53:22;14.10;99.90
35531;DHT22;21637;53.352;-6.356;2023-07-29T02:55:48;14.10;99.90
35531;DHT22;21637;53.352;-6.356;2023-07-29T02:58:14;14.00;99.90
35531;DHT22;21637;53.352;-6.356;2023-07-29T03:00:40;14.00;99.90
35531;DHT22;21637;53.352;-6.356;2023-07-29T03:03:09;14.00;99.90
35531;DHT22;21637;53.352;-6.356;2023-07-29T03:05:35;14.00;99.90
35531;DHT22;21637;53.352;-6.356;2023-07-29T03:08:01;14.00;99.90
35531;DHT22;21637;53.352;-6.356;2023-07-29T03:10:27;14.00;99.90
35531;DHT22;21637;53.352;-6.356;2023-07-29T03:12:55;14.00;99.90
35531;DHT22;21637;53.352;-6.356;2023-07-29T03:15:24;14.00;99.90
35531;DHT22;21637;53.352;-6.356;2023-07-29T03:17:51;14.00;99.90
35531;DHT22;21637;53.352;-6.356;2023-07-29T03:20:16;14.00;99.90
35531;DHT22;21637;53.352;-6.356;2023-07-29T03:22:44;14.00;99.90
35531;DHT22;21637;53.352;-6.356;2023-07-29T03:25:09;13.90;99.90
35531;DHT22;21637;53.352;-6.356;2023-07-29T03:27:35;13.90;99.90
35531;DHT22;21637;53.352;-6.356;2023-07-29T03:30:05;13.90;99.90
35531;DHT22;21637;53.352;-6.356;2023-07-29T03:32:31;13.90;99.90
35531;DHT22;21637;53.352;-6.356;2023-07-29T03:34:57;14.00;99.90
35531;DHT22;21637;53.352;-6.356;2023-07-29T03:37:24;14.00;99.90
35531;DHT22;21637;53.352;-6.356;2023-07-29T03:39:49;13.80;99.90
35531;DHT22;21637;53.352;-6.356;2023-07-29T03:42:17;13.90;99.90
35531;DHT22;21637;53.352;-6.356;2023-07-29T03:44:43;13.80;99.90
35531;DHT22;21637;53.352;-6.356;2023-07-29T03:47:09;13.80;99.90
35531;DHT22;21637;53.352;-6.356;2023-07-29T03:49:34;13.80;99.90
35531;DHT22;21637;53.352;-6.356;2023-07-29T03:52:00;13.80;99.90
35531;DHT22;21637;53.352;-6.356;2023-07-29T03:54:26;13.80;99.90
35531;DHT22;21637;53.352;-6.356;2023-07-29T03:56:51;13.80;99.90
35531;DHT22;21637;53.352;-6.356;2023-07-29T03:59:17;13.80;99.90
35531;DHT22;21637;53.352;-6.356;2023-07-29T04:01:43;13.80;99.90
35531;DHT22;21637;53.352;-6.356;2023-07-29T04:04:08;13.70;99.90
35531;DHT22;21637;53.352;-6.356;2023-07-29T04:06:34;13.70;99.90
35531;DHT22;21637;53.352;-6.356;2023-07-29T04:09:00;13.70;99.90
35531;DHT22;21637;53.352;-6.356;2023-07-29T04:11:25;13.60;99.90
35531;DHT22;21637;53.352;-6.356;2023-07-29T04:13:51;13.60;99.90
35531;DHT22;21637;53.352;-6.356;2023-07-29T04:16:17;13.60;99.90
35531;DHT22;21637;53.352;-6.356;2023-07-29T04:18:43;13.60;99.90
35531;DHT22;21637;53.352;-6.356;2023-07-29T04:21:09;13.60;99.90
35531;DHT22;21637;53.352;-6.356;2023-07-29T04:23:34;13.60;99.90
35531;DHT22;21637;53.352;-6.356;2023-07-29T04:26:00;13.60;99.90
35531;DHT22;21637;53.352;-6.356;2023-07-29T04:28:26;13.60;99.90
35531;DHT22;21637;53.352;-6.356;2023-07-29T04:30:52;13.50;99.90
35531;DHT22;21637;53.352;-6.356;2023-07-29T04:33:17;13.50;99.90
35531;DHT22;21637;53.352;-6.356;2023-07-29T04:35:43;13.50;99.90
35531;DHT22;21637;53.352;-6.356;2023-07-29T04:38:09;13.50;99.90
35531;DHT22;21637;53.352;-6.356;2023-07-29T04:40:35;13.50;99.90
35531;DHT22;21637;53.352;-6.356;2023-07-29T04:43:01;13.50;99.90
35531;DHT22;21637;53.352;-6.356;2023-07-29T04:45:30;13.50;99.90
35531;DHT22;21637;53.352;-6.356;2023-07-29T04:47:57;13.50;99.90
35531;DHT22;21637;53.352;-6.356;2023-07-29T04:50:23;13.50;99.90
35531;DHT22;21637;53.352;-6.356;2023-07-29T04:52:49;13.50;99.90
35531;DHT22;21637;53.352;-6.356;2023-07-29T04:55:15;13.50;99.90
35531;DHT22;21637;53.352;-6.356;2023-07-29T04:57:41;13.50;99.90
35531;DHT22;21637;53.352;-6.356;2023-07-29T05:00:07;13.60;99.90
35531;DHT22;21637;53.352;-6.356;2023-07-29T05:02:33;13.60;99.90
35531;DHT22;21637;53.352;-6.356;2023-07-29T05:04:58;13.60;99.90
35531;DHT22;21637;53.352;-6.356;2023-07-29T05:07:24;13.60;99.90
35531;DHT22;21637;53.352;-6.356;2023-07-29T05:09:50;13.60;99.90
35531;DHT22;21637;53.352;-6.356;2023-07-29T05:12:15;13.60;99.90
35531;DHT22;21637;53.352;-6.356;2023-07-29T05:14:41;13.60;99.90
35531;DHT22;21637;53.352;-6.356;2023-07-29T05:17:07;13.70;99.90
35531;DHT22;21637;53.352;-6.356;2023-07-29T05:19:32;13.70;99.90
35531;DHT22;21637;53.352;-6.356;2023-07-29T05:21:58;13.80;99.90
35531;DHT22;21637;53.352;-6.356;2023-07-29T05:24:24;13.90;99.90
35531;DHT22;21637;53.352;-6.356;2023-07-29T05:26:49;14.00;99.90
35531;DHT22;21637;53.352;-6.356;2023-07-29T05:29:15;14.10;99.90
35531;DHT22;21637;53.352;-6.356;2023-07-29T05:31:41;14.20;99.90
35531;DHT22;21637;53.352;-6.356;2023-07-29T05:34:07;14.20;99.90
35531;DHT22;21637;53.352;-6.356;2023-07-29T05:36:32;14.20;99.90
35531;DHT22;21637;53.352;-6.356;2023-07-29T05:38:58;14.20;99.90
35531;DHT22;21637;53.352;-6.356;2023-07-29T05:41:24;14.30;99.90
35531;DHT22;21637;53.352;-6.356;2023-07-29T05:43:53;14.40;99.90
35531;DHT22;21637;53.352;-6.356;2023-07-29T05:46:19;14.40;99.90
35531;DHT22;21637;53.352;-6.356;2023-07-29T05:48:47;14.50;99.90
35531;DHT22;21637;53.352;-6.356;2023-07-29T05:51:13;14.60;99.90
35531;DHT22;21637;53.352;-6.356;2023-07-29T05:53:38;14.70;99.90
35531;DHT22;21637;53.352;-6.356;2023-07-29T05:56:04;14.90;99.90
35531;DHT22;21637;53.352;-6.356;2023-07-29T05:58:30;15.00;99.90
35531;DHT22;21637;53.352;-6.356;2023-07-29T06:00:57;15.10;99.90
35531;DHT22;21637;53.352;-6.356;2023-07-29T06:03:23;15.20;99.90
35531;DHT22;21637;53.352;-6.356;2023-07-29T06:05:49;15.30;99.90
35531;DHT22;21637;53.352;-6.356;2023-07-29T06:08:15;15.50;99.90
35531;DHT22;21637;53.352;-6.356;2023-07-29T06:10:41;15.60;99.90
35531;DHT22;21637;53.352;-6.356;2023-07-29T06:13:06;15.60;99.90
35531;DHT22;21637;53.352;-6.356;2023-07-29T06:15:32;15.60;99.90
35531;DHT22;21637;53.352;-6.356;2023-07-29T06:17:58;15.60;99.90
35531;DHT22;21637;53.352;-6.356;2023-07-29T06:20:24;15.70;99.90
35531;DHT22;21637;53.352;-6.356;2023-07-29T06:22:49;15.80;99.90
35531;DHT22;21637;53.352;-6.356;2023-07-29T06:25:15;15.80;99.90
35531;DHT22;21637;53.352;-6.356;2023-07-29T06:27:41;15.80;99.90
35531;DHT22;21637;53.352;-6.356;2023-07-29T06:30:07;15.80;99.90
35531;DHT22;21637;53.352;-6.356;2023-07-29T06:32:33;15.80;99.90
35531;DHT22;21637;53.352;-6.356;2023-07-29T06:34:59;15.90;99.90
35531;DHT22;21637;53.352;-6.356;2023-07-29T06:37:25;16.10;99.90
35531;DHT22;21637;53.352;-6.356;2023-07-29T06:39:51;16.00;99.90
35531;DHT22;21637;53.352;-6.356;2023-07-29T06:42:16;16.00;99.90
35531;DHT22;21637;53.352;-6.356;2023-07-29T06:44:42;16.20;99.90
35531;DHT22;21637;53.352;-6.356;2023-07-29T06:47:08;16.20;99.90
35531;DHT22;21637;53.352;-6.356;2023-07-29T06:49:33;16.20;99.90
35531;DHT22;21637;53.352;-6.356;2023-07-29T06:51:59;16.30;99.90
35531;DHT22;21637;53.352;-6.356;2023-07-29T06:54:25;16.40;99.90
35531;DHT22;21637;53.352;-6.356;2023-07-29T06:56:54;16.40;99.90
35531;DHT22;21637;53.352;-6.356;2023-07-29T06:59:20;16.40;99.90
35531;DHT22;21637;53.352;-6.356;2023-07-29T07:01:46;16.50;99.90
35531;DHT22;21637;53.352;-6.356;2023-07-29T07:04:12;16.50;99.90
35531;DHT22;21637;53.352;-6.356;2023-07-29T07:06:37;16.60;99.90
35531;DHT22;21637;53.352;-6.356;2023-07-29T07:09:03;16.70;99.90
35531;DHT22;21637;53.352;-6.356;2023-07-29T07:11:29;16.70;99.90
35531;DHT22;21637;53.352;-6.356;2023-07-29T07:13:55;16.80;99.90
35531;DHT22;21637;53.352;-6.356;2023-07-29T07:16:20;16.80;99.90
35531;DHT22;21637;53.352;-6.356;2023-07-29T07:18:46;16.90;99.90
35531;DHT22;21637;53.352;-6.356;2023-07-29T07:21:12;16.90;99.90
35531;DHT22;21637;53.352;-6.356;2023-07-29T07:23:39;17.00;99.90
35531;DHT22;21637;53.352;-6.356;2023-07-29T07:26:04;17.00;99.90
35531;DHT22;21637;53.352;-6.356;2023-07-29T07:28:30;17.00;99.90
35531;DHT22;21637;53.352;-6.356;2023-07-29T07:30:56;17.10;99.90
35531;DHT22;21637;53.352;-6.356;2023-07-29T07:33:22;17.20;99.90
35531;DHT22;21637;53.352;-6.356;2023-07-29T07:35:48;17.30;99.90
35531;DHT22;21637;53.352;-6.356;2023-07-29T07:38:14;17.40;99.90
35531;DHT22;21637;53.352;-6.356;2023-07-29T07:40:40;17.50;99.90
35531;DHT22;21637;53.352;-6.356;2023-07-29T07:43:05;17.50;99.90
35531;DHT22;21637;53.352;-6.356;2023-07-29T07:45:32;17.50;99.90
35531;DHT22;21637;53.352;-6.356;2023-07-29T07:47:58;17.70;99.90
35531;DHT22;21637;53.352;-6.356;2023-07-29T07:50:24;17.80;99.90
35531;DHT22;21637;53.352;-6.356;2023-07-29T07:52:50;17.80;99.90
35531;DHT22;21637;53.352;-6.356;2023-07-29T07:55:15;17.70;99.90
35531;DHT22;21637;53.352;-6.356;2023-07-29T07:57:41;17.60;99.90
35531;DHT22;21637;53.352;-6.356;2023-07-29T08:00:07;17.50;99.90
35531;DHT22;21637;53.352;-6.356;2023-07-29T08:02:33;17.40;99.90
35531;DHT22;21637;53.352;-6.356;2023-07-29T08:04:59;17.40;99.90
35531;DHT22;21637;53.352;-6.356;2023-07-29T08:07:25;17.60;99.90
35531;DHT22;21637;53.352;-6.356;2023-07-29T08:09:50;17.50;99.90
35531;DHT22;21637;53.352;-6.356;2023-07-29T08:12:16;17.60;99.90
35531;DHT22;21637;53.352;-6.356;2023-07-29T08:14:42;17.80;99.90
35531;DHT22;21637;53.352;-6.356;2023-07-29T08:17:07;17.90;99.90
35531;DHT22;21637;53.352;-6.356;2023-07-29T08:19:33;18.00;99.90
35531;DHT22;21637;53.352;-6.356;2023-07-29T08:22:02;18.10;99.90
35531;DHT22;21637;53.352;-6.356;2023-07-29T08:24:28;18.20;99.90
35531;DHT22;21637;53.352;-6.356;2023-07-29T08:26:54;18.30;99.90
35531;DHT22;21637;53.352;-6.356;2023-07-29T08:29:19;18.40;99.90
35531;DHT22;21637;53.352;-6.356;2023-07-29T08:31:45;18.40;99.90
35531;DHT22;21637;53.352;-6.356;2023-07-29T08:34:11;18.60;99.90
35531;DHT22;21637;53.352;-6.356;2023-07-29T08:36:36;18.60;99.90
35531;DHT22;21637;53.352;-6.356;2023-07-29T08:39:02;18.60;99.90
35531;DHT22;21637;53.352;-6.356;2023-07-29T08:41:37;18.80;99.90
35531;DHT22;21637;53.352;-6.356;2023-07-29T08:46:44;18.80;99.90
35531;DHT22;21637;53.352;-6.356;2023-07-29T08:49:12;18.90;99.90
35531;DHT22;21637;53.352;-6.356;2023-07-29T08:51:41;19.00;99.90
35531;DHT22;21637;53.352;-6.356;2023-07-29T08:54:08;18.90;99.90
35531;DHT22;21637;53.352;-6.356;2023-07-29T08:56:34;18.80;99.90
35531;DHT22;21637;53.352;-6.356;2023-07-29T08:59:00;18.60;99.90
35531;DHT22;21637;53.352;-6.356;2023-07-29T09:01:27;18.30;99.90
35531;DHT22;21637;53.352;-6.356;2023-07-29T09:03:53;18.40;99.90
35531;DHT22;21637;53.352;-6.356;2023-07-29T09:06:20;18.50;99.90
35531;DHT22;21637;53.352;-6.356;2023-07-29T09:08:49;18.60;99.90
35531;DHT22;21637;53.352;-6.356;2023-07-29T09:11:15;18.70;99.90
35531;DHT22;21637;53.352;-6.356;2023-07-29T09:13:43;18.90;99.90
35531;DHT22;21637;53.352;-6.356;2023-07-29T09:16:09;19.00;99.90
35531;DHT22;21637;53.352;-6.356;2023-07-29T09:18:35;19.20;99.90
35531;DHT22;21637;53.352;-6.356;2023-07-29T09:21:01;19.20;99.90
35531;DHT22;21637;53.352;-6.356;2023-07-29T09:23:27;19.20;99.90
35531;DHT22;21637;53.352;-6.356;2023-07-29T09:26:03;19.30;99.90
35531;DHT22;21637;53.352;-6.356;2023-07-29T09:28:33;19.30;99.90
35531;DHT22;21637;53.352;-6.356;2023-07-29T09:31:00;19.40;99.90
35531;DHT22;21637;53.352;-6.356;2023-07-29T09:33:26;19.60;99.90
35531;DHT22;21637;53.352;-6.356;2023-07-29T09:35:52;19.60;99.90
35531;DHT22;21637;53.352;-6.356;2023-07-29T09:38:18;19.60;99.90
35531;DHT22;21637;53.352;-6.356;2023-07-29T09:40:43;19.50;99.90
35531;DHT22;21637;53.352;-6.356;2023-07-29T09:43:12;19.30;99.90
35531;DHT22;21637;53.352;-6.356;2023-07-29T09:45:38;19.00;99.90
35531;DHT22;21637;53.352;-6.356;2023-07-29T09:48:05;18.70;99.90
35531;DHT22;21637;53.352;-6.356;2023-07-29T09:50:34;18.60;99.90
35531;DHT22;21637;53.352;-6.356;2023-07-29T09:53:01;18.40;99.90
35531;DHT22;21637;53.352;-6.356;2023-07-29T09:55:28;18.20;99.90
35531;DHT22;21637;53.352;-6.356;2023-07-29T09:58:00;18.10;99.90
35531;DHT22;21637;53.352;-6.356;2023-07-29T10:00:30;18.00;99.90
35531;DHT22;21637;53.352;-6.356;2023-07-29T10:02:57;17.90;99.90
35531;DHT22;21637;53.352;-6.356;2023-07-29T10:05:25;17.80;99.90
35531;DHT22;21637;53.352;-6.356;2023-07-29T10:07:51;17.70;99.90
35531;DHT22;21637;53.352;-6.356;2023-07-29T10:10:17;17.70;99.90
35531;DHT22;21637;53.352;-6.356;2023-07-29T10:12:43;17.70;99.90
35531;DHT22;21637;53.352;-6.356;2023-07-29T10:15:09;17.60;99.90
35531;DHT22;21637;53.352;-6.356;2023-07-29T10:17:36;17.80;99.90
35531;DHT22;21637;53.352;-6.356;2023-07-29T10:20:07;18.10;99.90
35531;DHT22;21637;53.352;-6.356;2023-07-29T10:22:41;18.50;99.90
35531;DHT22;21637;53.352;-6.356;2023-07-29T10:25:18;18.70;99.90
35531;DHT22;21637;53.352;-6.356;2023-07-29T10:27:57;18.90;99.90
35531;DHT22;21637;53.352;-6.356;2023-07-29T10:30:25;18.90;99.90
35531;DHT22;21637;53.352;-6.356;2023-07-29T10:32:52;18.90;99.90
35531;DHT22;21637;53.352;-6.356;2023-07-29T10:35:18;18.90;99.90
35531;DHT22;21637;53.352;-6.356;2023-07-29T10:37:44;18.90;99.90
35531;DHT22;21637;53.352;-6.356;2023-07-29T10:40:12;18.80;99.90
35531;DHT22;21637;53.352;-6.356;2023-07-29T10:42:38;18.70;99.90
35531;DHT22;21637;53.352;-6.356;2023-07-29T10:45:22;18.70;99.90
35531;DHT22;21637;53.352;-6.356;2023-07-29T10:47:48;18.60;99.90
35531;DHT22;21637;53.352;-6.356;2023-07-29T10:50:18;18.80;99.90
35531;DHT22;21637;53.352;-6.356;2023-07-29T10:52:49;18.80;99.90
35531;DHT22;21637;53.352;-6.356;2023-07-29T10:58:13;19.00;99.90
35531;DHT22;21637;53.352;-6.356;2023-07-29T11:00:44;19.00;99.90
35531;DHT22;21637;53.352;-6.356;2023-07-29T11:03:12;19.00;99.90
35531;DHT22;21637;53.352;-6.356;2023-07-29T11:05:47;19.00;99.90
35531;DHT22;21637;53.352;-6.356;2023-07-29T11:08:31;19.00;99.90
35531;DHT22;21637;53.352;-6.356;2023-07-29T11:13:31;18.60;99.90
35531;DHT22;21637;53.352;-6.356;2023-07-29T11:15:58;18.40;99.90
35531;DHT22;21637;53.352;-6.356;2023-07-29T11:18:34;18.40;99.90
35531;DHT22;21637;53.352;-6.356;2023-07-29T11:21:04;18.60;99.90
35531;DHT22;21637;53.352;-6.356;2023-07-29T11:23:32;18.80;99.90
35531;DHT22;21637;53.352;-6.356;2023-07-29T11:25:58;19.00;99.90
35531;DHT22;21637;53.352;-6.356;2023-07-29T11:28:25;19.10;99.90
35531;DHT22;21637;53.352;-6.356;2023-07-29T11:30:51;19.30;99.90
35531;DHT22;21637;53.352;-6.356;2023-07-29T11:33:20;19.30;99.90
35531;DHT22;21637;53.352;-6.356;2023-07-29T11:35:45;19.40;99.90
35531;DHT22;21637;53.352;-6.356;2023-07-29T11:38:15;19.20;99.90
35531;DHT22;21637;53.352;-6.356;2023-07-29T11:40:42;19.20;99.90
35531;DHT22;21637;53.352;-6.356;2023-07-29T11:43:08;19.20;99.90
35531;DHT22;21637;53.352;-6.356;2023-07-29T11:45:33;19.40;99.90
35531;DHT22;21637;53.352;-6.356;2023-07-29T11:48:01;19.50;99.90
35531;DHT22;21637;53.352;-6.356;2023-07-29T11:50:27;19.70;99.90
35531;DHT22;21637;53.352;-6.356;2023-07-29T11:52:54;19.90;99.90
35531;DHT22;21637;53.352;-6.356;2023-07-29T11:55:19;20.00;99.90
35531;DHT22;21637;53.352;-6.356;2023-07-29T11:57:50;20.40;99.90
35531;DHT22;21637;53.352;-6.356;2023-07-29T12:00:17;20.60;99.90
35531;DHT22;21637;53.352;-6.356;2023-07-29T12:02:45;20.80;99.90
35531;DHT22;21637;53.352;-6.356;2023-07-29T12:05:14;20.80;99.90
35531;DHT22;21637;53.352;-6.356;2023-07-29T12:07:42;20.80;99.90
35531;DHT22;21637;53.352;-6.356;2023-07-29T12:10:09;20.80;99.90
35531;DHT22;21637;53.352;-6.356;2023-07-29T12:12:53;20.80;99.90
35531;DHT22;21637;53.352;-6.356;2023-07-29T12:15:29;20.60;99.90
35531;DHT22;21637;53.352;-6.356;2023-07-29T12:17:59;20.70;99.90
35531;DHT22;21637;53.352;-6.356;2023-07-29T12:20:29;20.70;99.90
35531;DHT22;21637;53.352;-6.356;2023-07-29T12:23:01;20.80;99.90
35531;DHT22;21637;53.352;-6.356;2023-07-29T12:25:28;20.90;99.90
35531;DHT22;21637;53.352;-6.356;2023-07-29T12:27:54;21.10;99.90
35531;DHT22;21637;53.352;-6.356;2023-07-29T12:30:22;21.00;99.90
35531;DHT22;21637;53.352;-6.356;2023-07-29T12:32:48;21.00;99.90
35531;DHT22;21637;53.352;-6.356;2023-07-29T12:35:14;20.80;99.90
35531;DHT22;21637;53.352;-6.356;2023-07-29T12:37:40;20.70;99.90
35531;DHT22;21637;53.352;-6.356;2023-07-29T12:40:25;20.70;99.90
35531;DHT22;21637;53.352;-6.356;2023-07-29T12:42:51;20.90;99.90
35531;DHT22;21637;53.352;-6.356;2023-07-29T12:45:17;21.10;99.90
35531;DHT22;21637;53.352;-6.356;2023-07-29T12:47:43;21.20;99.90
35531;DHT22;21637;53.352;-6.356;2023-07-29T12:50:35;21.20;99.90
35531;DHT22;21637;53.352;-6.356;2023-07-29T12:53:08;20.60;99.90
35531;DHT22;21637;53.352;-6.356;2023-07-29T12:55:37;19.70;99.90
35531;DHT22;21637;53.352;-6.356;2023-07-29T12:58:03;18.60;99.90
35531;DHT22;21637;53.352;-6.356;2023-07-29T13:00:29;18.10;99.90
35531;DHT22;21637;53.352;-6.356;2023-07-29T13:02:55;17.90;99.90
35531;DHT22;21637;53.352;-6.356;2023-07-29T13:05:21;17.60;99.90
35531;DHT22;21637;53.352;-6.356;2023-07-29T13:07:46;17.50;99.90
35531;DHT22;21637;53.352;-6.356;2023-07-29T13:10:13;17.60;99.90
35531;DHT22;21637;53.352;-6.356;2023-07-29T13:12:39;17.80;99.90
35531;DHT22;21637;53.352;-6.356;2023-07-29T13:15:05;17.80;99.90
35531;DHT22;21637;53.352;-6.356;2023-07-29T13:17:32;17.90;99.90
35531;DHT22;21637;53.352;-6.356;2023-07-29T13:19:57;18.10;99.90
35531;DHT22;21637;53.352;-6.356;2023-07-29T13:22:23;18.20;99.90
35531;DHT22;21637;53.352;-6.356;2023-07-29T13:24:49;18.30;99.90
35531;DHT22;21637;53.352;-6.356;2023-07-29T13:27:15;18.40;99.90
35531;DHT22;21637;53.352;-6.356;2023-07-29T13:29:40;18.40;99.90
35531;DHT22;21637;53.352;-6.356;2023-07-29T13:32:07;18.40;99.90
35531;DHT22;21637;53.352;-6.356;2023-07-29T13:34:33;18.50;99.90
35531;DHT22;21637;53.352;-6.356;2023-07-29T13:37:00;18.60;99.90
35531;DHT22;21637;53.352;-6.356;2023-07-29T13:39:25;18.70;99.90
35531;DHT22;21637;53.352;-6.356;2023-07-29T13:41:52;18.80;99.90
35531;DHT22;21637;53.352;-6.356;2023-07-29T13:44:18;18.90;99.90
35531;DHT22;21637;53.352;-6.356;2023-07-29T13:46:44;19.00;99.90
35531;DHT22;21637;53.352;-6.356;2023-07-29T13:49:10;18.90;99.90
35531;DHT22;21637;53.352;-6.356;2023-07-29T13:51:35;18.80;99.90
35531;DHT22;21637;53.352;-6.356;2023-07-29T13:54:01;18.80;99.90
35531;DHT22;21637;53.352;-6.356;2023-07-29T13:56:27;18.80;99.90
35531;DHT22;21637;53.352;-6.356;2023-07-29T13:58:53;18.90;99.90
35531;DHT22;21637;53.352;-6.356;2023-07-29T14:01:18;19.00;99.90
35531;DHT22;21637;53.352;-6.356;2023-07-29T14:03:44;19.20;99.90
35531;DHT22;21637;53.352;-6.356;2023-07-29T14:06:10;19.20;99.90
35531;DHT22;21637;53.352;-6.356;2023-07-29T14:08:35;19.30;99.90
35531;DHT22;21637;53.352;-6.356;2023-07-29T14:11:01;19.40;99.90
35531;DHT22;21637;53.352;-6.356;2023-07-29T14:13:27;19.40;99.90
35531;DHT22;21637;53.352;-6.356;2023-07-29T14:15:52;19.40;99.90
35531;DHT22;21637;53.352;-6.356;2023-07-29T14:18:18;19.50;99.90
35531;DHT22;21637;53.352;-6.356;2023-07-29T14:20:44;19.60;99.90
35531;DHT22;21637;53.352;-6.356;2023-07-29T14:23:10;19.70;99.90
35531;DHT22;21637;53.352;-6.356;2023-07-29T14:25:35;19.80;99.90
35531;DHT22;21637;53.352;-6.356;2023-07-29T14:28:01;20.00;99.90
35531;DHT22;21637;53.352;-6.356;2023-07-29T14:30:27;20.10;99.90
35531;DHT22;21637;53.352;-6.356;2023-07-29T14:32:52;20.20;99.90
35531;DHT22;21637;53.352;-6.356;2023-07-29T14:35:18;20.20;99.90
35531;DHT22;21637;53.352;-6.356;2023-07-29T14:37:44;20.30;99.90
35531;DHT22;21637;53.352;-6.356;2023-07-29T14:40:09;20.20;99.90
35531;DHT22;21637;53.352;-6.356;2023-07-29T14:42:35;20.20;99.90
35531;DHT22;21637;53.352;-6.356;2023-07-29T14:45:01;20.00;99.90
35531;DHT22;21637;53.352;-6.356;2023-07-29T14:47:27;19.90;99.90
35531;DHT22;21637;53.352;-6.356;2023-07-29T14:49:52;20.00;99.90
35531;DHT22;21637;53.352;-6.356;2023-07-29T14:52:18;20.20;99.90
35531;DHT22;21637;53.352;-6.356;2023-07-29T14:54:44;20.40;99.90
35531;DHT22;21637;53.352;-6.356;2023-07-29T14:57:10;20.50;99.90
35531;DHT22;21637;53.352;-6.356;2023-07-29T14:59:36;20.40;99.90
35531;DHT22;21637;53.352;-6.356;2023-07-29T15:02:02;20.30;99.90
35531;DHT22;21637;53.352;-6.356;2023-07-29T15:04:27;20.30;99.90
35531;DHT22;21637;53.352;-6.356;2023-07-29T15:06:53;20.20;99.90
35531;DHT22;21637;53.352;-6.356;2023-07-29T15:09:19;20.50;99.90
35531;DHT22;21637;53.352;-6.356;2023-07-29T15:11:45;20.80;99.90
35531;DHT22;21637;53.352;-6.356;2023-07-29T15:14:10;21.10;99.90
35531;DHT22;21637;53.352;-6.356;2023-07-29T15:16:36;21.60;99.90
35531;DHT22;21637;53.352;-6.356;2023-07-29T15:19:04;21.60;99.90
35531;DHT22;21637;53.352;-6.356;2023-07-29T15:21:30;21.70;99.90
35531;DHT22;21637;53.352;-6.356;2023-07-29T15:23:56;21.80;99.90
35531;DHT22;21637;53.352;-6.356;2023-07-29T15:26:21;21.90;99.90
35531;DHT22;21637;53.352;-6.356;2023-07-29T15:28:47;22.00;99.90
35531;DHT22;21637;53.352;-6.356;2023-07-29T15:31:13;22.10;99.90
35531;DHT22;21637;53.352;-6.356;2023-07-29T15:33:39;22.00;99.90